createdAt,value
2022-08-14T00:00:09.609Z,5.32
2022-08-14T00:02:19.079Z,5.13
2022-08-14T00:06:47.236Z,5.45
2022-08-14T00:08:52.169Z,5.57
2022-08-14T00:10:58.241Z,5.03
2022-08-14T00:13:07.072Z,5.35
2022-08-14T00:15:16.227Z,5.55
2022-08-14T00:17:21.026Z,5.57
2022-08-14T00:19:26.933Z,5.20
2022-08-14T00:21:32.338Z,4.85
2022-08-14T00:23:38.025Z,5.15
2022-08-14T00:25:59.017Z,5.22
2022-08-14T00:30:22.605Z,4.80
2022-08-14T00:32:50.555Z,5.50
2022-08-14T00:34:57.441Z,5.10
2022-08-14T00:37:02.485Z,5.55
2022-08-14T00:39:09.446Z,5.45
2022-08-14T00:41:14.977Z,5.40
2022-08-14T00:43:22.519Z,5.97
2022-08-14T00:45:31.152Z,6.13
2022-08-14T00:47:43.062Z,6.18
2022-08-14T00:49:50.743Z,5.72
2022-08-14T00:51:55.567Z,5.47
2022-08-14T00:54:01.993Z,5.93
2022-08-14T00:56:08.634Z,5.55
2022-08-14T00:58:32.577Z,5.47
2022-08-14T01:00:47.548Z,6.90
2022-08-14T01:02:56.352Z,6.30
2022-08-14T01:05:05.021Z,6.60
2022-08-14T01:07:10.117Z,6.13
2022-08-14T01:09:15.041Z,5.50
2022-08-14T01:11:21.059Z,5.72
2022-08-14T01:13:42.346Z,5.82
2022-08-14T01:16:01.070Z,6.10
2022-08-14T01:18:20.250Z,5.90
2022-08-14T01:20:39.355Z,6.88
2022-08-14T01:22:51.452Z,6.07
2022-08-14T01:24:57.459Z,7.63
2022-08-14T01:27:04.934Z,7.03
2022-08-14T01:29:16.371Z,7.20
2022-08-14T01:31:39.695Z,7.50
2022-08-14T01:35:15.758Z,7.05
2022-08-14T01:36:20.896Z,6.53
2022-08-14T01:38:34.311Z,6.82
2022-08-14T01:40:42.234Z,6.25
2022-08-14T01:42:48.913Z,6.38
2022-08-14T01:44:58.661Z,6.43
2022-08-14T01:47:11.829Z,6.80
2022-08-14T01:49:18.720Z,6.95
2022-08-14T01:51:28.808Z,7.22
2022-08-14T01:53:36.261Z,7.40
2022-08-14T01:55:41.916Z,5.90
2022-08-14T01:58:00.147Z,7.55
2022-08-14T02:00:09.044Z,7.13
2022-08-14T02:02:19.789Z,6.75
2022-08-14T02:04:56.089Z,7.07
2022-08-14T02:06:54.346Z,6.65
2022-08-14T02:09:04.310Z,7.43
2022-08-14T02:11:27.415Z,8.50
2022-08-14T02:13:35.553Z,7.45
2022-08-14T02:15:43.611Z,6.97
2022-08-14T02:17:49.050Z,7.65
2022-08-14T02:22:03.327Z,7.65
2022-08-14T02:24:40.304Z,7.50
2022-08-14T02:28:18.734Z,6.65
2022-08-14T02:29:08.077Z,7.20
2022-08-14T02:31:15.006Z,7.82
2022-08-14T02:33:20.673Z,7.97
2022-08-14T02:35:32.815Z,7.50
2022-08-14T02:37:47.487Z,7.82
2022-08-14T02:39:57.530Z,7.78
2022-08-14T02:42:04.448Z,6.60
2022-08-14T02:44:11.909Z,7.38
2022-08-14T02:46:20.525Z,6.70
2022-08-14T02:49:01.710Z,7.00
2022-08-14T02:50:56.170Z,6.47
2022-08-14T02:53:03.502Z,6.90
2022-08-14T02:55:12.010Z,7.30
2022-08-14T02:57:40.312Z,7.80
2022-08-14T02:59:46.570Z,7.28
2022-08-14T03:01:54.997Z,7.90
2022-08-14T03:03:59.878Z,6.68
2022-08-14T03:06:06.261Z,6.82
2022-08-14T03:08:19.083Z,7.22
2022-08-14T03:10:31.987Z,6.97
2022-08-14T03:12:37.236Z,7.55
2022-08-14T03:14:45.139Z,7.32
2022-08-14T03:16:50.982Z,7.22
2022-08-14T03:18:59.870Z,6.90
2022-08-14T03:21:07.903Z,7.30
2022-08-14T03:23:14.649Z,7.68
2022-08-14T03:25:22.534Z,7.07
2022-08-14T03:27:35.538Z,7.45
2022-08-14T03:29:52.934Z,7.85
2022-08-14T03:31:59.448Z,8.65
2022-08-14T03:34:04.881Z,9.48
2022-08-14T03:37:51.989Z,8.48
2022-08-14T03:39:15.483Z,9.25
2022-08-14T03:41:14.404Z,10.50
2022-08-14T03:43:22.365Z,10.07
2022-08-14T03:45:35.415Z,10.40
2022-08-14T03:47:55.999Z,10.05
2022-08-14T03:50:03.496Z,9.50
2022-08-14T03:52:27.853Z,9.65
2022-08-14T03:54:38.072Z,8.88
2022-08-14T03:56:45.646Z,10.07
2022-08-14T03:58:59.874Z,8.60
2022-08-14T04:01:06.490Z,7.97
2022-08-14T04:03:19.607Z,7.53
2022-08-14T04:05:29.332Z,8.13
2022-08-14T04:08:00.397Z,8.90
2022-08-14T04:10:12.950Z,8.65
2022-08-14T04:12:26.112Z,7.57
2022-08-14T04:14:37.239Z,8.43
2022-08-14T04:16:42.960Z,7.65
2022-08-14T04:18:51.219Z,8.07
2022-08-14T04:20:58.575Z,8.18
2022-08-14T04:23:07.045Z,8.27
2022-08-14T04:25:20.355Z,8.13
2022-08-14T04:27:27.558Z,8.68
2022-08-14T04:29:36.043Z,8.07
2022-08-14T04:33:02.887Z,7.75
2022-08-14T04:34:06.179Z,8.98
2022-08-14T04:36:15.848Z,8.25
2022-08-14T04:38:39.780Z,7.80
2022-08-14T04:40:57.185Z,8.60
2022-08-14T04:43:17.378Z,7.50
2022-08-14T04:45:32.877Z,7.63
2022-08-14T04:47:53.772Z,7.93
2022-08-14T04:49:59.500Z,8.27
2022-08-14T04:52:15.363Z,7.68
2022-08-14T04:56:34.039Z,7.72
2022-08-14T04:58:39.737Z,8.65
2022-08-14T05:00:50.860Z,7.60
2022-08-14T05:02:57.278Z,7.25
2022-08-14T05:07:06.871Z,7.97
2022-08-14T05:09:14.310Z,7.85
2022-08-14T05:11:20.043Z,8.07
2022-08-14T05:13:31.848Z,8.05
2022-08-14T05:15:50.192Z,8.70
2022-08-14T05:18:16.921Z,9.07
2022-08-14T05:21:05.098Z,8.30
2022-08-14T05:22:47.512Z,7.75
2022-08-14T05:25:01.758Z,8.57
2022-08-14T05:27:06.809Z,7.88
2022-08-14T05:29:12.546Z,7.63
2022-08-14T05:31:21.264Z,8.13
2022-08-14T05:33:29.031Z,8.18
2022-08-14T05:35:35.395Z,7.50
2022-08-14T05:37:44.530Z,8.60
2022-08-14T05:39:51.206Z,8.48
2022-08-14T05:41:56.822Z,8.52
2022-08-14T05:44:02.324Z,7.00
2022-08-14T05:48:23.424Z,7.93
2022-08-14T05:50:38.863Z,7.72
2022-08-14T05:52:46.223Z,8.23
2022-08-14T05:54:51.121Z,8.02
2022-08-14T05:56:56.034Z,7.93
2022-08-14T05:59:00.866Z,8.95
2022-08-14T06:01:06.571Z,8.30
2022-08-14T06:03:16.944Z,8.07
2022-08-14T06:05:23.285Z,7.45
2022-08-14T06:07:28.330Z,7.40
2022-08-14T06:09:35.375Z,7.65
2022-08-14T06:11:41.151Z,7.88
2022-08-14T06:13:48.163Z,6.47
2022-08-14T06:15:53.758Z,7.60
2022-08-14T06:18:00.299Z,7.05
2022-08-14T06:20:10.343Z,7.10
2022-08-14T06:22:15.328Z,7.05
2022-08-14T06:24:22.364Z,7.65
2022-08-14T06:28:36.542Z,6.88
2022-08-14T06:30:47.113Z,6.03
2022-08-14T06:32:53.422Z,6.50
2022-08-14T06:35:04.595Z,7.35
2022-08-14T06:37:19.946Z,6.28
2022-08-14T06:39:36.771Z,7.43
2022-08-14T06:41:59.610Z,6.75
2022-08-14T06:44:04.620Z,7.15
2022-08-14T06:46:23.296Z,6.28
2022-08-14T06:48:35.472Z,6.00
2022-08-14T06:50:41.055Z,8.23
2022-08-14T06:52:53.284Z,5.75
2022-08-14T06:54:58.139Z,6.25
2022-08-14T06:57:04.218Z,6.20
2022-08-14T07:01:36.949Z,5.97
2022-08-14T07:03:54.470Z,6.15
2022-08-14T07:05:59.406Z,6.07
2022-08-14T07:08:09.392Z,5.97
2022-08-14T07:10:17.311Z,6.53
2022-08-14T07:12:54.871Z,6.13
2022-08-14T07:14:47.481Z,6.80
2022-08-14T07:16:52.416Z,5.75
2022-08-14T07:18:57.397Z,5.25
2022-08-14T07:21:05.822Z,5.65
2022-08-14T07:23:20.569Z,5.82
2022-08-14T07:25:32.797Z,5.28
2022-08-14T07:27:37.977Z,5.15
2022-08-14T07:29:47.608Z,6.38
2022-08-14T07:31:52.617Z,5.78
2022-08-14T07:33:57.987Z,5.50
2022-08-14T07:36:09.047Z,5.75
2022-08-14T07:38:37.938Z,5.50
2022-08-14T07:40:43.064Z,5.43
2022-08-14T07:42:50.628Z,5.90
2022-08-14T07:44:55.694Z,4.40
2022-08-14T07:47:01.230Z,5.22
2022-08-14T07:51:11.500Z,4.80
2022-08-14T07:53:17.059Z,5.40
2022-08-14T07:55:26.227Z,4.72
2022-08-14T07:57:34.178Z,4.75
2022-08-14T08:01:51.199Z,5.32
2022-08-14T08:04:00.499Z,5.13
2022-08-14T08:06:10.499Z,4.88
2022-08-14T08:08:27.443Z,5.00
2022-08-14T08:10:57.092Z,4.65
2022-08-14T08:13:09.062Z,4.22
2022-08-14T08:15:14.076Z,4.85
2022-08-14T08:19:25.063Z,4.72
2022-08-14T08:21:33.407Z,3.88
2022-08-14T08:23:50.938Z,3.70
2022-08-14T08:26:00.044Z,4.65
2022-08-14T08:28:08.963Z,4.40
2022-08-14T08:30:24.975Z,4.15
2022-08-14T08:34:47.109Z,3.72
2022-08-14T08:36:52.678Z,3.55
2022-08-14T08:39:15.043Z,3.85
2022-08-14T08:41:28.059Z,4.32
2022-08-14T08:43:38.329Z,3.80
2022-08-14T08:45:43.246Z,4.55
2022-08-14T08:50:00.026Z,4.00
2022-08-14T08:52:06.124Z,4.10
2022-08-14T08:54:26.694Z,4.13
2022-08-14T08:56:40.586Z,4.55
2022-08-14T08:58:47.003Z,4.15
2022-08-14T09:00:55.577Z,3.92
2022-08-14T09:03:03.327Z,3.45
2022-08-14T09:05:09.625Z,3.60
2022-08-14T09:07:16.493Z,4.03
2022-08-14T09:09:33.090Z,3.72
2022-08-14T09:11:41.493Z,3.28
2022-08-14T09:13:46.481Z,3.20
2022-08-14T09:15:52.558Z,3.03
2022-08-14T09:18:00.795Z,3.20
2022-08-14T09:20:08.383Z,3.40
2022-08-14T09:22:35.794Z,3.10
2022-08-14T09:24:44.180Z,3.53
2022-08-14T09:26:53.808Z,4.05
2022-08-14T09:28:58.875Z,3.40
2022-08-14T09:31:17.256Z,3.15
2022-08-14T09:33:36.785Z,3.70
2022-08-14T09:36:16.554Z,3.10
2022-08-14T09:38:31.067Z,2.92
2022-08-14T09:40:50.411Z,2.90
2022-08-14T09:43:10.356Z,2.78
2022-08-14T09:45:18.953Z,3.08
2022-08-14T09:47:24.405Z,3.10
2022-08-14T09:49:40.639Z,2.88
2022-08-14T09:51:58.388Z,3.13
2022-08-14T09:54:19.693Z,3.05
2022-08-14T09:56:31.118Z,3.03
2022-08-14T09:58:43.955Z,3.38
2022-08-14T10:00:50.906Z,3.50
2022-08-14T10:03:05.532Z,3.00
2022-08-14T10:05:13.222Z,2.80
2022-08-14T10:07:18.370Z,3.08
2022-08-14T10:09:23.780Z,3.40
2022-08-14T10:11:36.433Z,2.85
2022-08-14T10:13:53.254Z,2.83
2022-08-14T10:16:02.576Z,3.17
2022-08-14T10:18:18.198Z,3.88
2022-08-14T10:23:12.265Z,3.28
2022-08-14T10:25:16.098Z,3.00
2022-08-14T10:27:23.605Z,3.38
2022-08-14T10:29:41.107Z,2.72
2022-08-14T10:31:45.981Z,3.17
2022-08-14T10:34:13.234Z,3.10
2022-08-14T10:36:34.528Z,3.42
2022-08-14T10:38:42.001Z,3.58
2022-08-14T10:40:59.347Z,3.97
2022-08-14T10:43:18.794Z,4.28
2022-08-14T10:45:42.036Z,3.97
2022-08-14T10:48:09.733Z,4.35
2022-08-14T10:50:32.356Z,4.17
2022-08-14T10:52:38.329Z,4.05
2022-08-14T10:54:48.758Z,4.38
2022-08-14T10:57:15.287Z,4.65
2022-08-14T10:59:23.518Z,4.20
2022-08-14T11:01:42.892Z,4.13
2022-08-14T11:03:56.128Z,4.03
2022-08-14T11:06:01.883Z,4.28
2022-08-14T11:08:09.155Z,3.83
2022-08-14T11:10:18.424Z,3.70
2022-08-14T11:12:34.245Z,3.33
2022-08-14T11:14:45.189Z,3.70
2022-08-14T11:16:54.304Z,3.42
2022-08-14T11:18:59.858Z,3.50
2022-08-14T11:21:06.822Z,3.55
2022-08-14T11:23:16.197Z,3.08
2022-08-14T11:25:23.759Z,2.55
2022-08-14T11:27:33.088Z,3.63
2022-08-14T11:29:42.391Z,3.55
2022-08-14T11:31:51.781Z,3.67
2022-08-14T11:34:00.935Z,3.60
2022-08-14T11:36:18.299Z,3.05
2022-08-14T11:38:23.849Z,2.80
2022-08-14T11:40:35.038Z,3.33
2022-08-14T11:43:08.095Z,3.30
2022-08-14T11:45:11.032Z,3.70
2022-08-14T11:47:22.337Z,2.80
2022-08-14T11:49:34.195Z,2.83
2022-08-14T11:51:53.616Z,3.03
2022-08-14T11:54:04.392Z,3.53
2022-08-14T11:56:10.966Z,2.83
2022-08-14T11:58:24.071Z,2.70
2022-08-14T12:00:31.914Z,2.80
2022-08-14T12:03:00.568Z,3.33
2022-08-14T12:05:09.146Z,2.75
2022-08-14T12:07:14.588Z,3.30
2022-08-14T12:09:31.443Z,3.00
2022-08-14T12:11:43.754Z,2.95
2022-08-14T12:13:55.901Z,3.70
2022-08-14T12:16:06.446Z,3.67
2022-08-14T12:18:19.256Z,4.00
2022-08-14T12:20:36.759Z,3.67
2022-08-14T12:22:44.125Z,3.40
2022-08-14T12:24:52.949Z,3.78
2022-08-14T12:26:58.913Z,3.28
2022-08-14T12:29:10.063Z,3.03
2022-08-14T12:31:20.677Z,2.95
2022-08-14T12:33:32.880Z,3.47
2022-08-14T12:35:46.969Z,3.45
2022-08-14T12:37:53.298Z,3.25
2022-08-14T12:39:58.726Z,3.33
2022-08-14T12:42:11.610Z,2.90
2022-08-14T12:44:33.692Z,3.22
2022-08-14T12:46:43.514Z,3.67
2022-08-14T12:48:51.619Z,2.90
2022-08-14T12:50:59.076Z,3.83
2022-08-14T12:53:14.557Z,3.88
2022-08-14T12:55:22.504Z,3.35
2022-08-14T12:57:43.038Z,3.35
2022-08-14T12:59:49.272Z,3.17
2022-08-14T13:02:06.459Z,3.70
2022-08-14T13:04:16.653Z,3.80
2022-08-14T13:06:29.416Z,4.00
2022-08-14T13:08:34.489Z,3.22
2022-08-14T13:10:51.102Z,3.63
2022-08-14T13:13:16.100Z,4.05
2022-08-14T13:15:21.434Z,3.45
2022-08-14T13:17:27.504Z,2.97
2022-08-14T13:19:33.420Z,3.50
2022-08-14T13:22:05.936Z,3.17
2022-08-14T13:24:09.271Z,3.38
2022-08-14T13:26:14.628Z,3.40
2022-08-14T13:28:32.739Z,3.30
2022-08-14T13:30:39.362Z,3.28
2022-08-14T13:32:45.346Z,3.05
2022-08-14T13:34:52.669Z,3.40
2022-08-14T13:37:04.258Z,3.20
2022-08-14T13:39:09.793Z,3.13
2022-08-14T13:41:31.441Z,3.35
2022-08-14T13:43:49.114Z,3.63
2022-08-14T13:46:04.690Z,3.42
2022-08-14T13:48:18.481Z,3.53
2022-08-14T13:50:37.477Z,3.38
2022-08-14T13:52:54.841Z,2.75
2022-08-14T13:55:07.751Z,3.60
2022-08-14T13:57:20.298Z,3.55
2022-08-14T13:59:38.137Z,3.30
2022-08-14T14:01:45.862Z,3.90
2022-08-14T14:03:59.295Z,3.40
2022-08-14T14:06:08.350Z,3.38
2022-08-14T14:08:19.116Z,3.42
2022-08-14T14:10:44.480Z,3.85
2022-08-14T14:12:56.372Z,3.55
2022-08-14T14:15:05.442Z,3.03
2022-08-14T14:17:13.922Z,3.10
2022-08-14T14:19:23.581Z,3.85
2022-08-14T14:21:30.694Z,3.45
2022-08-14T14:23:40.888Z,3.22
2022-08-14T14:25:51.231Z,2.92
2022-08-14T14:28:04.573Z,3.05
2022-08-14T14:30:52.646Z,3.28
2022-08-14T14:33:01.984Z,2.80
2022-08-14T14:35:07.395Z,3.30
2022-08-14T14:37:15.493Z,3.40
2022-08-14T14:39:25.580Z,4.03
2022-08-14T14:41:37.970Z,3.53
2022-08-14T14:43:52.558Z,3.42
2022-08-14T14:45:59.879Z,3.60
2022-08-14T14:48:06.619Z,3.88
2022-08-14T14:50:12.883Z,3.83
2022-08-14T14:52:26.583Z,3.42
2022-08-14T14:54:37.606Z,3.28
2022-08-14T14:56:49.812Z,4.20
2022-08-14T14:58:57.580Z,3.58
2022-08-14T15:01:08.584Z,3.92
2022-08-14T15:03:15.406Z,3.28
2022-08-14T15:05:24.263Z,3.78
2022-08-14T15:07:33.733Z,3.88
2022-08-14T15:09:41.241Z,3.80
2022-08-14T15:11:47.134Z,3.38
2022-08-14T15:13:52.998Z,3.78
2022-08-14T15:15:59.807Z,3.60
2022-08-14T15:18:05.336Z,3.63
2022-08-14T15:20:17.419Z,3.08
2022-08-14T15:22:39.754Z,3.03
2022-08-14T15:24:51.034Z,3.28
2022-08-14T15:26:58.472Z,3.80
2022-08-14T15:29:06.030Z,3.50
2022-08-14T15:31:11.170Z,3.22
2022-08-14T15:33:36.867Z,3.30
2022-08-14T15:36:02.314Z,3.60
2022-08-14T15:38:08.815Z,3.55
2022-08-14T15:40:22.467Z,3.47
2022-08-14T15:42:28.930Z,4.10
2022-08-14T15:44:36.769Z,3.60
2022-08-14T15:46:49.889Z,3.15
2022-08-14T15:48:55.784Z,3.53
2022-08-14T15:51:01.222Z,3.72
2022-08-14T15:53:09.199Z,3.85
2022-08-14T15:55:20.946Z,3.80
2022-08-14T15:57:27.990Z,3.40
2022-08-14T15:59:53.950Z,3.20
2022-08-14T16:01:57.313Z,3.20
2022-08-14T16:04:02.185Z,3.20
2022-08-14T16:06:17.370Z,3.13
2022-08-14T16:08:26.880Z,3.40
2022-08-14T16:10:38.164Z,3.17
2022-08-14T16:12:47.392Z,3.70
2022-08-14T16:14:52.371Z,3.20
2022-08-14T16:17:00.770Z,2.70
2022-08-14T16:19:09.754Z,2.33
2022-08-14T16:21:18.304Z,2.90
2022-08-14T16:23:23.514Z,3.47
2022-08-14T16:25:34.867Z,2.65
2022-08-14T16:27:43.943Z,3.28
2022-08-14T16:29:48.913Z,3.10
2022-08-14T16:31:56.370Z,3.45
2022-08-14T16:34:01.234Z,4.03
2022-08-14T16:36:31.246Z,4.20
2022-08-14T16:38:45.314Z,3.30
2022-08-14T16:41:14.084Z,3.92
2022-08-14T16:43:26.015Z,3.15
2022-08-14T16:45:33.657Z,4.00
2022-08-14T16:47:38.917Z,5.32
2022-08-14T16:50:03.525Z,5.93
2022-08-14T16:52:25.876Z,5.65
2022-08-14T16:54:45.117Z,5.00
2022-08-14T16:56:50.089Z,4.38
2022-08-14T16:59:12.283Z,3.90
2022-08-14T17:01:24.892Z,3.97
2022-08-14T17:03:41.028Z,3.90
2022-08-14T17:05:48.147Z,4.60
2022-08-14T17:08:33.278Z,4.05
2022-08-14T17:11:10.139Z,3.80
2022-08-14T17:13:20.312Z,4.35
2022-08-14T17:15:27.789Z,4.63
2022-08-14T17:17:49.994Z,3.55
2022-08-14T17:20:08.836Z,3.75
2022-08-14T17:22:49.140Z,4.55
2022-08-14T17:25:02.984Z,4.38
2022-08-14T17:27:10.564Z,4.88
2022-08-14T17:29:17.926Z,3.70
2022-08-14T17:31:58.066Z,3.42
2022-08-14T17:33:59.334Z,4.28
2022-08-14T17:36:20.688Z,3.90
2022-08-14T17:38:39.217Z,3.90
2022-08-14T17:40:45.153Z,3.67
2022-08-14T17:43:01.732Z,3.75
2022-08-14T17:45:08.068Z,4.18
2022-08-14T17:47:18.304Z,3.60
2022-08-14T17:49:26.392Z,3.92
2022-08-14T17:51:32.432Z,4.22
2022-08-14T17:53:53.331Z,4.13
2022-08-14T17:56:05.991Z,3.85
2022-08-14T17:58:20.700Z,4.20
2022-08-14T18:00:28.514Z,3.97
2022-08-14T18:02:40.277Z,4.32
2022-08-14T18:05:00.238Z,4.03
2022-08-14T18:07:49.321Z,3.80
2022-08-14T18:09:40.205Z,4.15
2022-08-14T18:14:31.635Z,4.85
2022-08-14T18:16:39.073Z,4.33
2022-08-14T18:18:49.739Z,3.63
2022-08-14T18:21:43.050Z,3.90
2022-08-14T18:23:24.008Z,4.63
2022-08-14T18:25:30.292Z,4.00
2022-08-14T18:27:42.613Z,4.38
2022-08-14T18:29:54.705Z,3.72
2022-08-14T18:32:00.690Z,4.43
2022-08-14T18:34:31.946Z,4.00
2022-08-14T18:36:54.279Z,4.50
2022-08-14T18:39:26.792Z,3.65
2022-08-14T18:41:37.071Z,4.55
2022-08-14T18:43:44.931Z,3.72
2022-08-14T18:46:04.477Z,4.40
2022-08-14T18:48:33.549Z,4.40
2022-08-14T18:50:55.578Z,4.00
2022-08-14T18:53:09.190Z,4.30
2022-08-14T18:55:53.209Z,4.00
2022-08-14T18:58:26.623Z,4.25
2022-08-14T19:00:51.920Z,4.32
2022-08-14T19:02:57.572Z,4.13
2022-08-14T19:05:04.326Z,4.10
2022-08-14T19:07:21.036Z,3.65
2022-08-14T19:09:58.857Z,4.22
2022-08-14T19:12:05.029Z,4.60
2022-08-14T19:14:10.306Z,4.22
2022-08-14T19:16:22.804Z,4.20
2022-08-14T19:18:38.085Z,4.45
2022-08-14T19:20:55.489Z,4.53
2022-08-14T19:23:18.734Z,4.15
2022-08-14T19:25:51.907Z,4.30
2022-08-14T19:28:31.256Z,4.53
2022-08-14T19:30:38.385Z,4.95
2022-08-14T19:32:43.335Z,4.70
2022-08-14T19:34:52.540Z,4.15
2022-08-14T19:37:09.875Z,4.95
2022-08-14T19:39:18.027Z,4.40
2022-08-14T19:41:29.268Z,4.60
2022-08-14T19:43:55.942Z,4.70
2022-08-14T19:46:00.383Z,4.20
2022-08-14T19:48:06.558Z,4.43
2022-08-14T19:50:30.716Z,4.43
2022-08-14T19:52:39.908Z,4.00
2022-08-14T19:54:47.680Z,4.30
2022-08-14T19:56:52.598Z,4.28
2022-08-14T19:58:57.737Z,4.93
2022-08-14T20:01:08.698Z,4.43
2022-08-14T20:03:18.412Z,4.88
2022-08-14T20:05:23.876Z,4.60
2022-08-14T20:11:03.335Z,5.13
2022-08-14T20:12:28.941Z,4.38
2022-08-14T20:14:40.692Z,4.40
2022-08-14T20:17:05.470Z,4.50
2022-08-14T20:19:20.650Z,5.00
2022-08-14T20:21:34.184Z,4.13
2022-08-14T20:23:41.090Z,4.90
2022-08-14T20:25:57.180Z,4.32
2022-08-14T20:28:30.072Z,5.03
2022-08-14T20:30:36.475Z,4.45
2022-08-14T20:32:44.111Z,4.80
2022-08-14T20:34:51.661Z,5.35
2022-08-14T20:37:10.428Z,4.90
2022-08-14T20:39:15.981Z,4.80
2022-08-14T20:41:23.647Z,4.85
2022-08-14T20:43:44.457Z,4.40
2022-08-14T20:45:52.059Z,4.55
2022-08-14T20:48:00.871Z,4.85
2022-08-14T20:50:20.264Z,4.90
2022-08-14T20:52:34.567Z,5.13
2022-08-14T20:54:50.677Z,4.95
2022-08-14T20:57:09.193Z,5.25
2022-08-14T20:59:19.322Z,5.30
2022-08-14T21:01:38.679Z,5.13
2022-08-14T21:03:57.681Z,4.47
2022-08-14T21:06:19.388Z,5.68
2022-08-14T21:08:25.620Z,4.90
2022-08-14T21:10:44.264Z,5.68
2022-08-14T21:12:55.517Z,4.75
2022-08-14T21:15:20.422Z,5.35
2022-08-14T21:17:29.693Z,4.75
2022-08-14T21:19:35.149Z,4.85
2022-08-14T21:21:45.414Z,5.40
2022-08-14T21:24:01.956Z,4.75
2022-08-14T21:26:08.093Z,4.80
2022-08-14T21:28:29.327Z,5.00
2022-08-14T21:30:47.007Z,4.85
2022-08-14T21:32:59.775Z,4.25
2022-08-14T21:35:10.024Z,5.20
2022-08-14T21:37:15.530Z,5.10
2022-08-14T21:39:22.337Z,5.43
2022-08-14T21:41:41.323Z,4.70
2022-08-14T21:43:48.436Z,4.93
2022-08-14T21:45:58.856Z,4.90
2022-08-14T21:48:10.859Z,4.65
2022-08-14T21:50:40.521Z,4.22
2022-08-14T21:52:50.758Z,4.90
2022-08-14T21:55:10.201Z,4.72
2022-08-14T21:57:23.735Z,4.10
2022-08-14T21:59:46.389Z,4.43
2022-08-14T22:02:00.490Z,4.32
2022-08-14T22:04:33.610Z,4.47
2022-08-14T22:06:36.394Z,4.10
2022-08-14T22:08:45.989Z,3.95
2022-08-14T22:10:53.397Z,4.03
2022-08-14T22:13:01.202Z,3.80
2022-08-14T22:15:08.264Z,3.85
2022-08-14T22:17:17.119Z,3.67
2022-08-14T22:19:28.671Z,4.35
2022-08-14T22:21:53.495Z,4.03
2022-08-14T22:23:58.718Z,4.00
2022-08-14T22:26:05.919Z,3.80
2022-08-14T22:28:14.812Z,4.35
2022-08-14T22:30:20.585Z,4.57
2022-08-14T22:32:30.198Z,3.65
2022-08-14T22:34:46.874Z,4.18
2022-08-14T22:36:53.530Z,4.40
2022-08-14T22:38:59.681Z,4.15
2022-08-14T22:41:29.705Z,4.60
2022-08-14T22:43:31.298Z,4.10
2022-08-14T22:45:40.378Z,3.83
2022-08-14T22:48:00.709Z,4.28
2022-08-14T22:50:31.701Z,4.50
2022-08-14T22:52:38.513Z,3.83
2022-08-14T22:54:52.302Z,4.40
2022-08-14T22:56:59.047Z,4.10
2022-08-14T22:59:09.663Z,4.57
2022-08-14T23:01:18.515Z,4.50
2022-08-14T23:03:27.884Z,4.85
2022-08-14T23:05:40.072Z,5.45
2022-08-14T23:08:59.798Z,4.82
2022-08-14T23:10:32.399Z,4.85
2022-08-14T23:12:45.957Z,5.45
2022-08-14T23:15:00.067Z,4.65
2022-08-14T23:17:06.106Z,4.57
2022-08-14T23:19:17.637Z,5.03
2022-08-14T23:21:28.958Z,4.75
2022-08-14T23:23:34.065Z,5.30
2022-08-14T23:25:58.746Z,5.15
2022-08-14T23:28:33.495Z,4.80
2022-08-14T23:30:41.587Z,5.32
2022-08-14T23:32:56.612Z,5.70
2022-08-14T23:35:03.566Z,5.25
2022-08-14T23:37:11.600Z,4.68
2022-08-14T23:39:20.847Z,5.00
2022-08-14T23:41:25.772Z,5.10
2022-08-14T23:43:54.607Z,5.28
2022-08-14T23:46:00.232Z,5.35
2022-08-14T23:48:05.367Z,5.07
2022-08-14T23:50:34.487Z,5.57
2022-08-14T23:52:50.457Z,5.57
2022-08-14T23:55:11.117Z,4.82
2022-08-14T23:57:19.328Z,5.97
2022-08-14T23:59:24.553Z,5.50
